createdAt,value
2023-11-30T00:01:50.791Z,6.10
2023-11-30T00:04:19.170Z,6.10
2023-11-30T00:06:47.568Z,6.10
2023-11-30T00:09:15.934Z,6.10
2023-11-30T00:11:45.784Z,6.10
2023-11-30T00:14:14.497Z,6.10
2023-11-30T00:16:42.847Z,6.10
2023-11-30T00:19:11.137Z,6.10
2023-11-30T00:21:40.034Z,6.10
2023-11-30T00:24:08.487Z,6.00
2023-11-30T00:26:36.806Z,6.00
2023-11-30T00:29:06.632Z,6.00
2023-11-30T00:31:35.346Z,6.00
2023-11-30T00:34:03.710Z,6.00
2023-11-30T00:36:32.867Z,6.00
2023-11-30T00:39:01.279Z,6.00
2023-11-30T00:41:29.707Z,6.00
2023-11-30T00:43:57.968Z,6.00
2023-11-30T00:46:27.704Z,6.00
2023-11-30T00:48:56.045Z,6.00
2023-11-30T00:51:24.437Z,6.00
2023-11-30T00:53:52.836Z,6.00
2023-11-30T00:56:21.137Z,6.00
2023-11-30T00:58:49.482Z,6.00
2023-11-30T01:01:17.989Z,6.00
2023-11-30T01:03:48.757Z,6.00
2023-11-30T01:06:17.845Z,6.10
2023-11-30T01:08:46.157Z,6.00
2023-11-30T01:11:14.811Z,6.00
2023-11-30T01:13:43.183Z,6.10
2023-11-30T01:16:12.195Z,6.00
2023-11-30T01:18:41.722Z,6.00
2023-11-30T01:21:11.584Z,6.10
2023-11-30T01:23:40.058Z,6.00
2023-11-30T01:26:08.616Z,6.00
2023-11-30T01:28:37.464Z,6.00
2023-11-30T01:31:06.088Z,6.00
2023-11-30T01:33:34.636Z,6.00
2023-11-30T01:36:03.069Z,6.00
2023-11-30T01:38:32.897Z,6.00
2023-11-30T01:41:01.177Z,6.00
2023-11-30T01:43:29.535Z,6.00
2023-11-30T01:46:03.431Z,6.00
2023-11-30T01:48:34.137Z,6.00
2023-11-30T01:51:05.859Z,6.00
2023-11-30T01:53:36.699Z,6.00
2023-11-30T01:56:05.920Z,6.00
2023-11-30T01:58:34.495Z,6.00
2023-11-30T02:01:02.168Z,6.00
2023-11-30T02:03:31.842Z,6.00
2023-11-30T02:06:01.304Z,6.00
2023-11-30T02:08:30.211Z,6.00
2023-11-30T02:11:00.258Z,6.00
2023-11-30T02:13:28.623Z,6.00
2023-11-30T02:15:56.971Z,6.00
2023-11-30T02:18:25.878Z,5.90
2023-11-30T02:20:58.209Z,5.90
2023-11-30T02:23:28.571Z,5.90
2023-11-30T02:25:56.960Z,5.90
2023-11-30T02:28:25.780Z,5.90
2023-11-30T02:30:54.198Z,5.90
2023-11-30T02:33:22.678Z,5.90
2023-11-30T02:35:51.203Z,5.90
2023-11-30T02:38:19.586Z,5.90
2023-11-30T02:40:49.398Z,5.90
2023-11-30T02:43:17.843Z,5.90
2023-11-30T02:45:46.331Z,5.90
2023-11-30T02:48:16.179Z,5.90
2023-11-30T02:50:44.640Z,5.90
2023-11-30T02:53:13.558Z,5.90
2023-11-30T02:55:42.267Z,5.90
2023-11-30T02:58:12.204Z,5.90
2023-11-30T03:00:40.596Z,5.80
2023-11-30T03:03:09.003Z,5.80
2023-11-30T03:05:37.391Z,5.80
2023-11-30T03:08:06.176Z,5.80
2023-11-30T03:10:34.477Z,5.80
2023-11-30T03:13:02.944Z,5.80
2023-11-30T03:15:33.057Z,5.80
2023-11-30T03:18:01.450Z,5.80
2023-11-30T03:20:29.979Z,5.80
2023-11-30T03:22:58.412Z,5.80
2023-11-30T03:25:26.772Z,5.80
2023-11-30T03:27:55.259Z,5.80
2023-11-30T03:30:23.646Z,5.90
2023-11-30T03:32:53.663Z,5.80
2023-11-30T03:35:22.108Z,5.80
2023-11-30T03:37:50.731Z,5.80
2023-11-30T03:40:19.098Z,5.80
2023-11-30T03:42:47.547Z,5.80
2023-11-30T03:45:16.445Z,5.80
2023-11-30T03:47:44.844Z,5.80
2023-11-30T03:50:14.628Z,5.80
2023-11-30T03:52:43.071Z,5.80
2023-11-30T03:55:11.520Z,5.80
2023-11-30T03:57:39.916Z,5.80
2023-11-30T04:00:14.416Z,5.80
2023-11-30T04:02:43.597Z,5.80
2023-11-30T04:05:15.362Z,5.80
2023-11-30T04:07:44.607Z,5.80
2023-11-30T04:10:13.649Z,5.80
2023-11-30T04:12:42.525Z,5.80
2023-11-30T04:15:11.524Z,5.80
2023-11-30T04:17:40.498Z,5.80
2023-11-30T04:20:11.193Z,5.80
2023-11-30T04:22:41.077Z,5.80
2023-11-30T04:25:10.678Z,5.80
2023-11-30T04:27:39.478Z,5.70
2023-11-30T04:30:09.100Z,5.70
2023-11-30T04:32:37.711Z,5.70
2023-11-30T04:35:07.037Z,5.70
2023-11-30T04:37:35.564Z,5.70
2023-11-30T04:40:06.082Z,5.70
2023-11-30T04:42:34.566Z,5.60
2023-11-30T04:45:03.200Z,5.60
2023-11-30T04:47:31.637Z,5.60
2023-11-30T04:50:00.286Z,5.60
2023-11-30T04:52:28.730Z,5.70
2023-11-30T04:54:57.086Z,5.60
2023-11-30T04:57:27.153Z,5.60
2023-11-30T04:59:57.442Z,5.60
2023-11-30T05:02:25.999Z,5.60
2023-11-30T05:04:54.503Z,5.60
2023-11-30T05:07:22.842Z,5.60
2023-11-30T05:09:51.235Z,5.60
2023-11-30T05:12:19.633Z,5.50
2023-11-30T05:14:49.800Z,5.50
2023-11-30T05:17:19.429Z,5.60
2023-11-30T05:19:47.794Z,5.50
2023-11-30T05:22:16.295Z,5.50
2023-11-30T05:24:44.794Z,5.50
2023-11-30T05:27:13.130Z,5.40
2023-11-30T05:29:41.428Z,5.40
2023-11-30T05:32:11.314Z,5.40
2023-11-30T05:34:39.669Z,5.40
2023-11-30T05:37:08.134Z,5.40
2023-11-30T05:39:37.757Z,5.40
2023-11-30T05:42:06.423Z,5.40
2023-11-30T05:44:34.747Z,5.40
2023-11-30T05:47:03.027Z,5.40
2023-11-30T05:49:32.749Z,5.40
2023-11-30T05:52:01.083Z,5.40
2023-11-30T05:54:29.469Z,5.40
2023-11-30T05:57:00.542Z,5.30
2023-11-30T05:59:29.709Z,5.30
2023-11-30T06:01:58.604Z,5.30
2023-11-30T06:04:30.444Z,5.30
2023-11-30T06:07:00.422Z,5.30
2023-11-30T06:09:28.875Z,5.30
2023-11-30T06:11:57.248Z,5.30
2023-11-30T06:14:25.539Z,5.30
2023-11-30T06:16:53.799Z,5.30
2023-11-30T06:19:22.016Z,5.20
2023-11-30T06:21:50.315Z,5.20
2023-11-30T06:24:20.044Z,5.30
2023-11-30T06:26:48.504Z,5.20
2023-11-30T06:29:17.058Z,5.20
2023-11-30T06:31:45.306Z,5.20
2023-11-30T06:34:13.721Z,5.20
2023-11-30T06:36:42.054Z,5.20
2023-11-30T06:39:10.724Z,5.20
2023-11-30T06:41:40.594Z,5.20
2023-11-30T06:44:09.113Z,5.20
2023-11-30T06:51:15.937Z,5.20
2023-11-30T06:53:48.836Z,5.20
2023-11-30T06:56:20.406Z,5.20
2023-11-30T06:58:57.180Z,5.20
2023-11-30T07:01:31.277Z,5.20
2023-11-30T07:04:10.160Z,5.20
2023-11-30T07:06:59.121Z,5.20
2023-11-30T07:09:31.961Z,5.20
2023-11-30T07:12:04.873Z,5.20
2023-11-30T07:14:55.464Z,5.20
2023-11-30T07:17:38.780Z,5.10
2023-11-30T07:20:12.187Z,5.10
2023-11-30T07:22:50.950Z,5.20
2023-11-30T07:25:29.471Z,5.10
2023-11-30T07:28:03.919Z,5.20
2023-11-30T07:33:24.530Z,5.20
2023-11-30T07:35:59.208Z,5.20
2023-11-30T07:38:33.434Z,5.20
2023-11-30T07:41:09.754Z,5.20
2023-11-30T07:43:40.618Z,5.20
2023-11-30T07:46:14.278Z,5.20
2023-11-30T07:48:43.184Z,5.20
2023-11-30T07:51:11.751Z,5.20
2023-11-30T07:53:40.307Z,5.20
2023-11-30T07:56:10.124Z,5.20
2023-11-30T07:58:38.749Z,5.30
2023-11-30T08:01:07.761Z,5.30
2023-11-30T08:03:58.937Z,5.30
2023-11-30T08:06:28.076Z,5.30
2023-11-30T08:08:56.601Z,5.30
2023-11-30T08:11:25.317Z,5.40
2023-11-30T08:13:54.251Z,5.30
2023-11-30T08:16:22.950Z,5.30
2023-11-30T08:18:51.579Z,5.30
2023-11-30T08:21:23.167Z,5.30
2023-11-30T08:23:52.029Z,5.40
2023-11-30T08:26:21.290Z,5.40
2023-11-30T08:28:51.948Z,5.40
2023-11-30T08:31:23.195Z,5.40
2023-11-30T08:33:52.114Z,5.40
2023-11-30T08:36:26.639Z,5.50
2023-11-30T08:38:55.693Z,5.50
2023-11-30T08:41:24.600Z,5.50
2023-11-30T08:43:54.105Z,5.50
2023-11-30T08:46:23.240Z,5.50
2023-11-30T08:48:52.296Z,5.60
2023-11-30T08:51:22.398Z,5.60
2023-11-30T08:53:51.283Z,5.60
2023-11-30T08:56:21.233Z,5.60
2023-11-30T08:58:55.713Z,5.60
2023-11-30T09:01:24.301Z,5.60
2023-11-30T09:04:09.833Z,5.60
2023-11-30T09:06:40.098Z,5.60
2023-11-30T09:09:08.801Z,5.70
2023-11-30T09:11:37.869Z,5.70
2023-11-30T09:14:06.696Z,5.70
2023-11-30T09:16:35.308Z,5.80
2023-11-30T09:19:06.529Z,5.80
2023-11-30T09:21:35.198Z,5.90
2023-11-30T09:24:05.770Z,6.00
2023-11-30T09:26:34.359Z,6.10
2023-11-30T09:29:04.267Z,6.20
2023-11-30T09:31:32.922Z,6.20
2023-11-30T09:34:02.916Z,6.30
2023-11-30T09:36:32.823Z,6.30
2023-11-30T09:39:01.526Z,6.30
2023-11-30T09:41:31.709Z,6.30
2023-11-30T09:44:02.007Z,6.30
2023-11-30T09:46:30.762Z,6.30
2023-11-30T09:48:59.574Z,6.30
2023-11-30T09:51:29.939Z,6.30
2023-11-30T09:53:59.349Z,6.30
2023-11-30T09:56:28.620Z,6.30
2023-11-30T09:58:58.587Z,6.30
2023-11-30T10:01:27.178Z,6.30
2023-11-30T10:03:55.900Z,6.30
2023-11-30T10:06:25.099Z,6.30
2023-11-30T10:08:53.639Z,6.30
2023-11-30T10:11:22.525Z,6.30
2023-11-30T10:13:51.589Z,6.30
2023-11-30T10:16:21.642Z,6.30
2023-11-30T10:18:50.343Z,6.30
2023-11-30T10:21:19.062Z,6.30
2023-11-30T10:23:47.777Z,6.40
2023-11-30T10:26:19.065Z,6.40
2023-11-30T10:28:47.888Z,6.40
2023-11-30T10:31:19.601Z,6.40
2023-11-30T10:33:55.648Z,6.40
2023-11-30T10:36:27.819Z,6.40
2023-11-30T10:39:05.186Z,6.40
2023-11-30T10:41:45.112Z,6.40
2023-11-30T10:44:21.543Z,6.40
2023-11-30T10:46:51.067Z,6.40
2023-11-30T10:49:22.346Z,6.40
2023-11-30T10:51:51.537Z,6.40
2023-11-30T10:54:29.529Z,6.40
2023-11-30T10:56:58.532Z,6.40
2023-11-30T10:59:30.790Z,6.40
2023-11-30T11:01:59.925Z,6.40
2023-11-30T11:04:38.754Z,6.40
2023-11-30T11:07:13.862Z,6.50
2023-11-30T11:09:43.845Z,6.50
2023-11-30T11:12:25.724Z,6.50
2023-11-30T11:15:12.805Z,6.50
2023-11-30T11:17:49.054Z,6.50
2023-11-30T11:20:25.944Z,6.40
2023-11-30T11:22:56.881Z,6.40
2023-11-30T11:25:28.007Z,6.40
2023-11-30T11:28:12.547Z,6.40
2023-11-30T11:30:44.669Z,6.50
2023-11-30T11:33:13.271Z,6.50
2023-11-30T11:35:43.055Z,6.50
2023-11-30T11:38:13.571Z,6.50
2023-11-30T11:40:47.291Z,6.50
2023-11-30T11:43:15.956Z,6.50
2023-11-30T11:45:50.092Z,6.40
2023-11-30T11:48:19.965Z,6.50
2023-11-30T11:50:59.559Z,6.50
2023-11-30T11:53:29.885Z,6.50
2023-11-30T11:56:04.173Z,6.50
2023-11-30T11:58:33.895Z,6.50
2023-11-30T12:01:02.508Z,6.50
2023-11-30T12:03:32.953Z,6.50
2023-11-30T12:06:02.936Z,6.50
2023-11-30T12:08:34.698Z,6.50
2023-11-30T12:11:03.420Z,6.50
2023-11-30T12:13:34.729Z,6.50
2023-11-30T12:16:05.819Z,6.50
2023-11-30T12:18:34.413Z,6.50
2023-11-30T12:21:04.167Z,6.50
2023-11-30T12:23:32.607Z,6.50
2023-11-30T12:26:01.017Z,6.60
2023-11-30T12:28:29.789Z,6.60
2023-11-30T12:30:58.188Z,6.60
2023-11-30T12:33:26.666Z,6.70
2023-11-30T12:35:55.699Z,6.70
2023-11-30T12:38:27.143Z,6.70
2023-11-30T12:40:55.644Z,6.70
2023-11-30T12:43:24.020Z,6.80
2023-11-30T12:45:53.020Z,6.90
2023-11-30T12:48:21.524Z,7.00
2023-11-30T12:50:49.988Z,7.00
2023-11-30T12:53:18.755Z,7.00
2023-11-30T12:55:48.830Z,7.00
2023-11-30T12:58:17.317Z,7.00
2023-11-30T13:00:45.914Z,7.00
2023-11-30T13:03:14.612Z,7.00
2023-11-30T13:05:43.069Z,7.10
2023-11-30T13:08:12.011Z,7.10
2023-11-30T13:10:40.402Z,7.20
2023-11-30T13:13:10.104Z,7.10
2023-11-30T13:15:39.780Z,7.10
2023-11-30T13:18:08.237Z,7.10
2023-11-30T13:20:36.659Z,7.10
2023-11-30T13:23:04.968Z,7.00
2023-11-30T13:25:33.294Z,7.00
2023-11-30T13:28:01.720Z,7.00
2023-11-30T13:30:31.524Z,7.00
2023-11-30T13:33:00.151Z,7.00
2023-11-30T13:35:28.595Z,7.00
2023-11-30T13:37:59.186Z,7.00
2023-11-30T13:40:27.578Z,7.00
2023-11-30T13:42:58.294Z,7.00
2023-11-30T13:45:27.918Z,7.00
2023-11-30T13:47:58.194Z,7.00
2023-11-30T13:50:34.997Z,7.00
2023-11-30T13:53:05.934Z,7.00
2023-11-30T13:55:34.412Z,7.00
2023-11-30T13:58:02.811Z,7.00
2023-11-30T14:00:31.586Z,7.00
2023-11-30T14:03:02.432Z,7.00
2023-11-30T14:05:31.142Z,7.10
2023-11-30T14:07:59.856Z,7.10
2023-11-30T14:10:28.905Z,7.10
2023-11-30T19:04:24.022Z,6.50
2023-11-30T19:06:52.784Z,6.50
2023-11-30T19:09:21.320Z,6.50
2023-11-30T19:11:50.378Z,6.50
2023-11-30T19:14:18.717Z,6.50
2023-11-30T19:16:49.747Z,6.50
2023-11-30T19:19:19.859Z,6.50
2023-11-30T19:21:48.444Z,6.50
2023-11-30T19:24:17.265Z,6.50
2023-11-30T19:26:45.714Z,6.50
2023-11-30T19:29:15.222Z,6.50
2023-11-30T19:31:43.731Z,6.50
2023-11-30T19:34:13.144Z,6.50
2023-11-30T19:36:43.412Z,6.50
2023-11-30T19:39:11.920Z,6.50
2023-11-30T19:41:43.723Z,6.50
2023-11-30T19:44:12.649Z,6.50
2023-11-30T19:46:41.219Z,6.50
2023-11-30T19:49:09.838Z,6.50
2023-11-30T19:51:38.573Z,6.50
2023-11-30T19:54:09.683Z,6.50
2023-11-30T19:56:41.126Z,6.50
2023-11-30T19:59:09.612Z,6.50
2023-11-30T20:01:38.158Z,6.50
2023-11-30T20:04:07.014Z,6.50
2023-11-30T20:06:35.730Z,6.50
2023-11-30T20:09:05.028Z,6.50
2023-11-30T20:11:34.847Z,6.50
2023-11-30T20:14:03.311Z,6.50
2023-11-30T20:16:31.877Z,6.40
2023-11-30T20:19:00.411Z,6.40
2023-11-30T20:21:28.911Z,6.40
2023-11-30T20:23:57.457Z,6.30
2023-11-30T20:26:25.893Z,6.30
2023-11-30T20:28:55.848Z,6.30
2023-11-30T20:31:24.429Z,6.20
2023-11-30T20:33:53.004Z,6.20
2023-11-30T20:36:21.562Z,6.20
2023-11-30T20:38:50.122Z,6.20
2023-11-30T20:41:18.621Z,6.20
2023-11-30T20:43:48.860Z,6.20
2023-11-30T20:46:20.942Z,6.30
2023-11-30T20:48:50.164Z,6.20
2023-11-30T20:51:20.235Z,6.20
2023-11-30T20:53:48.718Z,6.20
2023-11-30T20:56:17.146Z,6.20
2023-11-30T20:58:47.900Z,6.20
2023-11-30T21:01:16.625Z,6.30
2023-11-30T21:03:46.702Z,6.20
2023-11-30T21:06:15.460Z,6.20
2023-11-30T21:08:44.106Z,6.20
2023-11-30T21:11:14.452Z,6.20
2023-11-30T21:13:42.906Z,6.20
2023-11-30T21:16:11.660Z,6.20
2023-11-30T21:18:40.799Z,6.20
2023-11-30T21:21:11.161Z,6.20
2023-11-30T21:23:39.616Z,6.20
2023-11-30T21:26:08.527Z,6.20
2023-11-30T21:28:37.608Z,6.20
2023-11-30T21:31:06.540Z,6.20
2023-11-30T21:33:35.274Z,6.20
2023-11-30T21:36:03.843Z,6.20
2023-11-30T21:38:38.267Z,6.20
2023-11-30T21:41:06.999Z,6.10
2023-11-30T21:43:50.252Z,6.10
2023-11-30T21:46:19.381Z,6.20
2023-11-30T21:48:47.942Z,6.10
2023-11-30T21:51:16.490Z,6.10
2023-11-30T21:53:46.321Z,6.10
2023-11-30T21:56:15.363Z,6.10
2023-11-30T21:58:43.827Z,6.10
2023-11-30T22:01:12.323Z,6.10
2023-11-30T22:03:41.000Z,6.10
2023-11-30T22:06:10.478Z,6.10
2023-11-30T22:08:38.898Z,6.20
2023-11-30T22:11:09.120Z,6.20
2023-11-30T22:13:37.587Z,6.20
2023-11-30T22:16:18.698Z,6.20
2023-11-30T22:18:52.853Z,6.20
2023-11-30T22:21:21.241Z,6.30
2023-11-30T22:23:50.116Z,6.30
2023-11-30T22:26:19.936Z,6.30
2023-11-30T22:28:48.563Z,6.30
2023-11-30T22:31:18.142Z,6.30
2023-11-30T22:33:46.610Z,6.30
2023-11-30T22:36:15.199Z,6.40
2023-11-30T22:38:46.269Z,6.40
2023-11-30T22:41:15.229Z,6.30
2023-11-30T22:43:44.931Z,6.30
2023-11-30T22:46:20.461Z,6.30
2023-11-30T22:48:51.103Z,6.40
2023-11-30T22:51:19.722Z,6.40
2023-11-30T22:53:48.019Z,6.40
2023-11-30T22:56:22.014Z,6.40
2023-11-30T22:58:51.990Z,6.40
2023-11-30T23:01:20.574Z,6.40
2023-11-30T23:03:49.388Z,6.40
2023-11-30T23:06:18.131Z,6.40
2023-11-30T23:08:47.974Z,6.40
2023-11-30T23:11:16.560Z,6.50
2023-11-30T23:13:44.882Z,6.50
2023-11-30T23:16:15.120Z,6.40
2023-11-30T23:18:43.807Z,6.40
2023-11-30T23:21:12.086Z,6.40
2023-11-30T23:23:40.318Z,6.40
2023-11-30T23:26:08.745Z,6.40
2023-11-30T23:28:37.225Z,6.40
2023-11-30T23:31:05.810Z,6.40
2023-11-30T23:33:35.663Z,6.30
2023-11-30T23:36:05.420Z,6.40
2023-11-30T23:38:33.741Z,6.40
2023-11-30T23:41:02.081Z,6.40
2023-11-30T23:43:30.423Z,6.40
2023-11-30T23:45:58.764Z,6.40
2023-11-30T23:48:27.066Z,6.40
2023-11-30T23:50:57.130Z,6.40
2023-11-30T23:53:26.265Z,6.40
2023-11-30T23:55:54.743Z,6.40
2023-11-30T23:58:23.131Z,6.40
